Time;durP1;ratioP1;P1;durP2;ratioP2;P2;SDS_P1;SDS_P2;PMS_P1;PMS_P2;Temp;Humidity;BMP_temperature;BMP_pressure;BME280_temperature;BME280_humidity;BME280_pressure;Samples;Min_cycle;Max_cycle;Signal;HPM_P1;HPM_P2
2020/12/29 00:01:33;;;;;;;1.63;1.53;;;7.40;91.10;;;;;;5084992;28;20725;-52
2020/12/29 00:04:01;;;;;;;1.50;1.13;;;7.40;91.30;;;;;;5069609;28;20682;-51
2020/12/29 00:06:28;;;;;;;1.87;1.10;;;7.40;91.30;;;;;;5069178;28;20930;-52
2020/12/29 00:08:54;;;;;;;1.87;1.50;;;7.40;91.30;;;;;;5069703;28;20712;-51
2020/12/29 00:11:21;;;;;;;1.60;1.50;;;7.40;91.40;;;;;;5070673;28;20655;-52
2020/12/29 00:13:48;;;;;;;5.00;1.67;;;7.40;91.60;;;;;;5071086;28;20619;-52
2020/12/29 00:16:15;;;;;;;4.07;3.77;;;7.40;91.60;;;;;;5069903;28;20665;-50
2020/12/29 00:18:42;;;;;;;1.73;1.53;;;7.30;91.60;;;;;;5090173;28;21021;-50
2020/12/29 00:21:17;;;;;;;1.93;1.83;;;7.30;92.00;;;;;;5091056;28;20705;-52
2020/12/29 00:23:44;;;;;;;1.60;1.50;;;7.30;92.10;;;;;;5091583;28;20604;-51
2020/12/29 00:26:11;;;;;;;2.47;1.77;;;7.30;92.10;;;;;;5093143;28;20972;-51
2020/12/29 00:28:37;;;;;;;2.17;1.77;;;7.40;92.20;;;;;;5092296;28;20626;-51
2020/12/29 00:31:04;;;;;;;2.50;1.77;;;7.40;92.30;;;;;;5074292;28;20659;-53
2020/12/29 00:33:31;;;;;;;8.30;2.87;;;7.40;92.20;;;;;;5074636;28;20673;-51
2020/12/29 00:35:58;;;;;;;3.47;2.23;;;7.40;92.10;;;;;;5074177;28;20619;-50
2020/12/29 00:38:26;;;;;;;2.50;2.30;;;7.40;92.30;;;;;;5085498;28;20900;-50
2020/12/29 00:40:52;;;;;;;2.17;1.97;;;7.40;92.20;;;;;;5057514;28;21255;-50
2020/12/29 00:43:19;;;;;;;1.97;1.73;;;7.40;92.30;;;;;;5053576;28;20641;-50
2020/12/29 00:45:46;;;;;;;2.20;2.00;;;7.30;92.30;;;;;;5075474;28;20625;-50
2020/12/29 00:48:13;;;;;;;3.17;1.60;;;7.40;92.40;;;;;;5072279;28;20618;-50
2020/12/29 00:50:39;;;;;;;1.97;1.83;;;7.40;92.40;;;;;;5071115;28;20725;-50
2020/12/29 00:53:06;;;;;;;1.70;1.57;;;7.30;92.30;;;;;;5071505;28;20961;-50
2020/12/29 00:55:34;;;;;;;1.47;1.37;;;7.40;92.40;;;;;;5072589;28;20628;-50
2020/12/29 00:58:01;;;;;;;2.53;1.80;;;7.30;92.30;;;;;;5072508;28;20722;-50
2020/12/29 01:00:27;;;;;;;3.30;1.40;;;7.30;92.40;;;;;;5076534;28;20701;-50
2020/12/29 01:02:54;;;;;;;1.60;1.50;;;7.30;92.50;;;;;;5074971;28;20663;-51
2020/12/29 01:05:21;;;;;;;1.53;1.27;;;7.30;92.40;;;;;;5071390;28;21160;-50
2020/12/29 01:07:47;;;;;;;1.67;1.57;;;7.20;92.40;;;;;;5071631;28;20715;-50
2020/12/29 01:10:14;;;;;;;2.00;1.60;;;7.30;92.60;;;;;;5071736;28;20611;-51
2020/12/29 01:12:42;;;;;;;1.40;1.30;;;7.30;92.60;;;;;;5071186;28;20677;-52
2020/12/29 01:15:08;;;;;;;1.77;1.43;;;7.30;92.50;;;;;;5072584;28;21066;-52
2020/12/29 01:17:35;;;;;;;1.67;1.57;;;7.40;92.50;;;;;;5074822;28;20667;-51
2020/12/29 01:20:02;;;;;;;1.20;1.10;;;7.40;92.40;;;;;;5069880;28;20712;-52
2020/12/29 01:22:29;;;;;;;1.37;1.27;;;7.40;92.30;;;;;;5072126;28;20708;-52
2020/12/29 01:24:55;;;;;;;2.33;1.80;;;7.50;92.30;;;;;;5072461;28;20655;-52
2020/12/29 01:27:22;;;;;;;1.90;1.20;;;7.50;92.30;;;;;;5073075;28;20642;-52
2020/12/29 01:29:50;;;;;;;1.47;1.37;;;7.50;92.30;;;;;;5072867;28;20649;-52
2020/12/29 01:32:16;;;;;;;2.20;1.37;;;7.60;92.30;;;;;;5073468;28;21053;-52
2020/12/29 01:34:43;;;;;;;1.93;1.00;;;7.60;92.30;;;;;;5073244;28;20641;-52
2020/12/29 01:37:10;;;;;;;1.60;1.50;;;7.60;92.30;;;;;;5072327;28;20658;-52
2020/12/29 01:39:37;;;;;;;1.30;1.20;;;7.70;92.20;;;;;;5071435;28;20666;-52
2020/12/29 01:42:03;;;;;;;2.10;1.30;;;7.60;92.10;;;;;;5072428;28;21183;-52
2020/12/29 01:44:30;;;;;;;1.00;0.90;;;7.60;92.10;;;;;;5071645;28;20618;-52
2020/12/29 01:46:58;;;;;;;1.63;1.53;;;7.70;92.20;;;;;;5071584;28;20711;-52
2020/12/29 01:49:24;;;;;;;2.03;1.17;;;7.70;92.10;;;;;;5071138;28;20632;-52
2020/12/29 01:51:51;;;;;;;1.20;1.17;;;7.60;92.00;;;;;;5072146;28;20696;-52
2020/12/29 01:54:18;;;;;;;2.50;1.57;;;7.60;92.00;;;;;;5071343;28;21190;-52
2020/12/29 01:56:44;;;;;;;2.43;2.23;;;7.60;92.10;;;;;;5070881;28;20639;-52
2020/12/29 01:59:12;;;;;;;1.63;1.27;;;7.50;92.20;;;;;;5070713;28;20671;-51
2020/12/29 02:01:39;;;;;;;2.40;2.03;;;7.60;92.50;;;;;;5070120;28;21272;-51
2020/12/29 02:04:07;;;;;;;1.47;1.23;;;7.50;92.50;;;;;;5070382;28;20659;-52
2020/12/29 02:06:34;;;;;;;2.00;1.30;;;7.50;92.50;;;;;;5081490;28;20671;-52
2020/12/29 02:09:01;;;;;;;2.73;1.60;;;7.70;92.70;;;;;;5090632;28;20702;-50
2020/12/29 02:11:28;;;;;;;3.40;1.40;;;7.60;92.60;;;;;;5081577;28;21226;-50
2020/12/29 02:13:55;;;;;;;2.03;1.87;;;7.70;92.60;;;;;;5070689;28;20659;-50
2020/12/29 02:16:22;;;;;;;1.70;1.60;;;7.70;92.50;;;;;;5070390;28;20654;-50
2020/12/29 02:18:48;;;;;;;1.33;1.23;;;7.70;92.50;;;;;;5069759;28;20667;-50
2020/12/29 02:21:16;;;;;;;2.80;1.43;;;7.70;92.50;;;;;;5070297;28;20713;-50
2020/12/29 02:23:44;;;;;;;1.80;1.37;;;7.70;92.70;;;;;;5069994;28;20659;-51
2020/12/29 02:26:10;;;;;;;1.97;1.30;;;7.60;92.70;;;;;;5070357;28;20666;-51
2020/12/29 02:28:37;;;;;;;1.30;1.20;;;7.70;92.90;;;;;;5069883;28;20653;-50
2020/12/29 02:31:04;;;;;;;1.90;1.77;;;7.70;93.00;;;;;;5073672;28;20715;-50
2020/12/29 02:33:31;;;;;;;2.43;1.20;;;7.70;92.90;;;;;;5090136;28;20658;-50
2020/12/29 02:35:57;;;;;;;2.93;1.33;;;7.60;92.80;;;;;;5090170;28;20626;-50
2020/12/29 02:38:24;;;;;;;1.73;1.33;;;7.60;93.10;;;;;;5090209;28;20635;-50
2020/12/29 02:40:52;;;;;;;1.63;1.30;;;7.60;93.20;;;;;;5073906;28;21351;-51
2020/12/29 02:43:19;;;;;;;1.67;1.10;;;7.60;93.30;;;;;;5070372;28;20766;-50
2020/12/29 02:45:45;;;;;;;1.57;1.47;;;7.60;93.40;;;;;;5070392;28;21199;-49
2020/12/29 02:48:12;;;;;;;1.47;1.20;;;7.60;93.40;;;;;;5069567;28;20650;-49
2020/12/29 02:50:39;;;;;;;1.17;1.07;;;7.60;93.30;;;;;;5070453;28;20743;-50
2020/12/29 02:53:05;;;;;;;2.17;1.87;;;7.60;93.30;;;;;;5071756;28;20618;-50
2020/12/29 02:55:32;;;;;;;5.10;1.83;;;7.70;93.30;;;;;;5069570;28;20759;-50
2020/12/29 02:58:00;;;;;;;1.50;1.40;;;7.70;93.20;;;;;;5069945;28;20683;-51
2020/12/29 03:00:26;;;;;;;2.60;1.10;;;7.70;93.30;;;;;;5073660;28;20702;-51
2020/12/29 03:02:53;;;;;;;1.00;0.90;;;7.70;93.20;;;;;;5089767;28;20657;-51
2020/12/29 03:05:20;;;;;;;1.00;0.90;;;7.70;93.00;;;;;;5071894;28;20685;-51
2020/12/29 03:07:46;;;;;;;2.83;1.10;;;7.70;93.10;;;;;;5088329;28;20965;-51
2020/12/29 03:10:13;;;;;;;1.13;1.07;;;7.80;93.10;;;;;;5081595;28;20668;-52
2020/12/29 03:12:40;;;;;;;1.30;1.20;;;7.80;93.10;;;;;;5069771;28;21268;-51
2020/12/29 03:15:08;;;;;;;1.07;0.97;;;7.90;93.10;;;;;;5069040;28;21010;-49
2020/12/29 03:17:36;;;;;;;1.00;0.90;;;7.80;92.80;;;;;;5068679;28;21023;-49
2020/12/29 03:20:02;;;;;;;1.80;1.37;;;7.90;92.70;;;;;;5070073;28;20667;-49
2020/12/29 03:22:29;;;;;;;2.13;1.30;;;7.90;92.80;;;;;;5070070;28;20658;-50
2020/12/29 03:24:56;;;;;;;0.70;0.70;;;7.90;93.10;;;;;;5069604;28;20670;-50
2020/12/29 03:27:22;;;;;;;1.30;1.00;;;7.90;92.50;;;;;;5069109;28;20654;-49
2020/12/29 03:29:49;;;;;;;1.87;0.83;;;7.90;92.60;;;;;;5069293;28;20622;-50
2020/12/29 03:32:17;;;;;;;1.80;0.87;;;7.80;92.90;;;;;;5069185;28;20678;-50
2020/12/29 03:34:43;;;;;;;1.83;0.93;;;7.80;93.30;;;;;;5069339;28;20653;-50
2020/12/29 03:37:11;;;;;;;0.93;0.83;;;7.80;93.60;;;;;;5080547;28;20973;-49
2020/12/29 03:39:38;;;;;;;1.10;0.93;;;7.70;93.70;;;;;;5086751;28;20718;-50
2020/12/29 03:42:05;;;;;;;1.73;0.97;;;7.70;93.70;;;;;;5069319;28;20756;-49
2020/12/29 03:44:33;;;;;;;1.00;0.90;;;7.70;93.90;;;;;;5069394;28;20631;-50
2020/12/29 03:47:00;;;;;;;0.63;0.50;;;7.70;93.90;;;;;;5069572;28;20650;-50
2020/12/29 03:49:27;;;;;;;0.60;0.60;;;7.70;94.20;;;;;;5068991;28;20656;-49
2020/12/29 03:51:54;;;;;;;0.93;0.57;;;7.70;93.80;;;;;;5069869;28;20691;-50
2020/12/29 03:54:21;;;;;;;0.70;0.70;;;7.80;93.80;;;;;;5071031;28;20670;-50
2020/12/29 03:56:47;;;;;;;1.93;0.70;;;7.80;93.70;;;;;;5069248;28;21327;-50
2020/12/29 03:59:14;;;;;;;1.87;1.23;;;7.80;93.60;;;;;;5071780;28;20626;-50
2020/12/29 04:01:41;;;;;;;0.60;0.60;;;7.70;93.60;;;;;;5073013;28;21285;-50
2020/12/29 04:04:08;;;;;;;1.00;0.73;;;7.70;93.70;;;;;;5073028;28;20664;-50
2020/12/29 04:06:36;;;;;;;0.50;0.40;;;7.70;93.70;;;;;;5073367;28;21163;-50
2020/12/29 04:09:03;;;;;;;1.13;0.60;;;7.70;93.80;;;;;;5073196;28;20976;-50
2020/12/29 04:11:29;;;;;;;0.70;0.70;;;7.70;93.90;;;;;;5073258;28;20681;-54
2020/12/29 04:13:56;;;;;;;0.60;0.40;;;7.70;94.00;;;;;;5072934;28;20657;-50
2020/12/29 04:16:23;;;;;;;3.80;0.80;;;7.60;93.90;;;;;;5084338;28;20689;-50
2020/12/29 04:18:50;;;;;;;0.50;0.50;;;7.60;94.10;;;;;;5092201;28;21152;-50
2020/12/29 04:21:17;;;;;;;2.70;0.73;;;7.70;94.10;;;;;;5072767;28;20696;-50
2020/12/29 04:23:45;;;;;;;0.50;0.50;;;7.70;94.10;;;;;;5087552;28;20623;-50
2020/12/29 04:26:12;;;;;;;0.60;0.60;;;7.60;94.00;;;;;;5093261;28;20646;-50
2020/12/29 04:28:39;;;;;;;0.73;0.70;;;7.60;94.30;;;;;;5092359;28;21027;-51
2020/12/29 04:31:08;;;;;;;0.70;0.50;;;7.50;94.40;;;;;;5092627;28;20679;-51
2020/12/29 04:33:35;;;;;;;0.90;0.90;;;7.40;94.50;;;;;;5092448;28;21030;-51
2020/12/29 04:36:02;;;;;;;1.23;0.70;;;7.30;94.80;;;;;;5093118;28;20662;-51
2020/12/29 04:38:28;;;;;;;1.20;1.10;;;7.30;95.20;;;;;;5092506;28;20648;-51
2020/12/29 04:40:56;;;;;;;2.93;0.87;;;7.20;95.40;;;;;;5077658;28;21038;-52
2020/12/29 04:43:23;;;;;;;1.23;0.70;;;7.30;95.70;;;;;;5071773;28;20662;-50
2020/12/29 04:45:49;;;;;;;0.90;0.70;;;7.20;95.70;;;;;;5072060;28;20613;-49
2020/12/29 04:48:16;;;;;;;0.73;0.70;;;7.20;95.70;;;;;;5072289;28;21205;-50
2020/12/29 04:50:43;;;;;;;0.73;0.70;;;7.30;95.90;;;;;;5078616;28;21153;-50
2020/12/29 04:53:10;;;;;;;0.83;0.83;;;7.20;95.90;;;;;;5092415;28;20653;-49
2020/12/29 04:55:37;;;;;;;0.83;0.70;;;7.30;96.00;;;;;;5092163;28;20614;-50
2020/12/29 04:58:05;;;;;;;1.23;0.63;;;7.00;95.70;;;;;;5092258;28;20643;-50
2020/12/29 05:00:31;;;;;;;3.00;1.10;;;7.00;96.00;;;;;;5091575;28;21110;-50
2020/12/29 05:02:58;;;;;;;2.67;1.00;;;7.10;96.40;;;;;;5091673;28;20628;-50
2020/12/29 05:05:25;;;;;;;1.20;1.10;;;7.00;96.30;;;;;;5091878;28;21043;-49
2020/12/29 05:07:51;;;;;;;1.50;1.37;;;7.00;96.50;;;;;;5092252;28;20657;-50
2020/12/29 05:10:18;;;;;;;1.97;1.00;;;7.00;96.60;;;;;;5090176;28;20655;-50
2020/12/29 05:12:49;;;;;;;0.90;0.90;;;6.90;96.60;;;;;;5091896;28;20659;-50
2020/12/29 05:15:17;;;;;;;0.83;0.83;;;6.80;96.40;;;;;;5091291;28;20614;-49
2020/12/29 05:17:44;;;;;;;0.77;0.70;;;6.80;96.60;;;;;;5091447;28;20648;-49
2020/12/29 05:20:10;;;;;;;1.33;0.67;;;6.90;96.50;;;;;;5071353;28;20654;-50
2020/12/29 05:22:38;;;;;;;0.97;0.70;;;6.80;96.00;;;;;;5071600;28;21060;-51
2020/12/29 05:25:05;;;;;;;1.17;1.13;;;6.80;95.80;;;;;;5071052;28;20661;-51
2020/12/29 05:27:42;;;;;;;0.73;0.73;;;6.80;95.90;;;;;;5071543;28;20593;-50
2020/12/29 05:30:09;;;;;;;0.63;0.63;;;6.70;95.70;;;;;;5070946;28;20641;-52
2020/12/29 05:32:38;;;;;;;0.60;0.50;;;6.80;95.50;;;;;;5071260;28;20675;-52
2020/12/29 05:35:11;;;;;;;0.50;0.40;;;6.70;95.20;;;;;;5071548;28;21251;-52
2020/12/29 05:37:39;;;;;;;0.57;0.50;;;6.70;95.30;;;;;;5050973;28;20639;-52
2020/12/29 05:40:23;;;;;;;0.90;0.50;;;6.70;94.90;;;;;;5063970;28;20656;-51
2020/12/29 05:42:50;;;;;;;0.50;0.50;;;6.60;94.90;;;;;;5075855;28;20688;-50
2020/12/29 05:45:17;;;;;;;1.80;0.43;;;6.50;94.90;;;;;;5070649;28;21263;-50
2020/12/29 05:47:48;;;;;;;1.87;0.70;;;6.40;95.00;;;;;;5069658;28;21110;-50
2020/12/29 05:50:15;;;;;;;0.90;0.50;;;6.50;95.20;;;;;;5070267;28;20656;-50
2020/12/29 05:52:42;;;;;;;1.63;0.50;;;6.60;95.00;;;;;;5077833;28;20982;-49
2020/12/29 05:55:08;;;;;;;0.60;0.40;;;6.50;94.80;;;;;;5075224;28;20615;-50
2020/12/29 05:57:35;;;;;;;0.70;0.60;;;6.40;94.80;;;;;;5070086;28;20673;-50
2020/12/29 06:00:02;;;;;;;1.10;0.70;;;6.30;95.20;;;;;;5074112;28;20653;-50
2020/12/29 06:02:28;;;;;;;0.60;0.37;;;6.30;95.30;;;;;;5069801;28;20692;-50
2020/12/29 06:04:56;;;;;;;1.57;1.47;;;6.40;95.30;;;;;;5069100;28;20656;-50
2020/12/29 06:07:23;;;;;;;0.63;0.63;;;6.40;95.10;;;;;;5073525;28;20685;-50
2020/12/29 06:09:49;;;;;;;1.10;0.87;;;6.50;95.10;;;;;;5070261;28;20668;-50
2020/12/29 06:12:20;;;;;;;1.00;0.90;;;6.40;94.90;;;;;;5072789;28;20680;-50
2020/12/29 06:14:47;;;;;;;0.80;0.80;;;6.40;94.90;;;;;;5090124;28;20697;-50
2020/12/29 06:17:17;;;;;;;1.10;1.00;;;6.40;95.20;;;;;;5079492;28;20668;-50
2020/12/29 06:19:47;;;;;;;0.50;0.50;;;6.40;94.90;;;;;;5071024;28;20627;-51
2020/12/29 06:22:15;;;;;;;0.60;0.60;;;6.50;94.80;;;;;;5069771;28;21089;-50
2020/12/29 06:24:43;;;;;;;2.63;0.63;;;6.50;94.70;;;;;;5070201;28;20626;-50
2020/12/29 06:27:11;;;;;;;1.20;0.70;;;6.60;94.70;;;;;;5069882;28;20649;-50
2020/12/29 06:29:38;;;;;;;1.27;0.73;;;6.50;94.90;;;;;;5075690;28;20634;-49
2020/12/29 06:32:08;;;;;;;1.90;1.00;;;6.40;94.90;;;;;;5069860;28;20762;-50
2020/12/29 06:34:35;;;;;;;1.13;0.97;;;6.40;94.70;;;;;;5069720;28;20971;-50
2020/12/29 06:37:23;;;;;;;1.20;1.10;;;6.30;94.70;;;;;;5070616;28;20947;-50
2020/12/29 06:39:52;;;;;;;1.30;1.00;;;6.30;94.90;;;;;;5069363;28;20709;-50
2020/12/29 06:42:19;;;;;;;1.73;0.83;;;6.30;94.80;;;;;;5069533;28;20694;-50
2020/12/29 06:44:51;;;;;;;1.00;0.90;;;6.30;94.90;;;;;;5071796;28;20658;-50
2020/12/29 06:47:18;;;;;;;1.10;1.00;;;6.40;94.90;;;;;;5089823;28;20656;-50
2020/12/29 06:49:45;;;;;;;1.33;1.20;;;6.40;95.00;;;;;;5089195;28;20690;-50
2020/12/29 06:52:17;;;;;;;1.20;1.10;;;6.40;94.70;;;;;;5088374;28;21125;-50
2020/12/29 06:54:48;;;;;;;1.57;1.13;;;6.30;94.70;;;;;;5069095;28;20646;-50
2020/12/29 06:57:15;;;;;;;1.30;1.20;;;6.30;95.00;;;;;;5069223;28;20632;-50
2020/12/29 06:59:42;;;;;;;1.63;1.20;;;6.30;95.20;;;;;;5069559;28;20662;-50
2020/12/29 07:02:15;;;;;;;1.10;0.97;;;6.40;95.50;;;;;;5069448;28;20704;-50
2020/12/29 07:04:48;;;;;;;1.10;1.00;;;6.40;95.00;;;;;;5069568;28;20720;-49
2020/12/29 07:07:28;;;;;;;0.73;0.73;;;6.40;94.70;;;;;;5069597;28;20654;-50
2020/12/29 07:10:10;;;;;;;1.37;1.10;;;6.30;94.50;;;;;;5068746;28;21017;-51
2020/12/29 07:12:37;;;;;;;1.33;1.20;;;6.30;94.60;;;;;;5069431;28;20930;-50
2020/12/29 07:15:04;;;;;;;1.27;1.17;;;6.30;94.70;;;;;;5068849;28;20672;-51
2020/12/29 07:17:32;;;;;;;1.20;1.03;;;6.40;94.70;;;;;;5069176;28;20684;-51
2020/12/29 07:19:58;;;;;;;1.00;0.93;;;6.30;94.70;;;;;;5069320;28;20664;-51
2020/12/29 07:22:26;;;;;;;2.37;1.13;;;6.30;94.80;;;;;;5069237;28;20721;-51
2020/12/29 07:24:54;;;;;;;1.70;1.60;;;6.30;94.80;;;;;;5069000;28;20661;-52
2020/12/29 07:27:21;;;;;;;1.77;1.27;;;6.40;95.00;;;;;;5069324;28;21005;-52
2020/12/29 07:29:56;;;;;;;1.70;1.60;;;6.40;94.70;;;;;;5069101;28;20632;-52
2020/12/29 07:32:23;;;;;;;1.30;1.20;;;6.40;94.90;;;;;;5069318;28;20678;-52
2020/12/29 07:34:49;;;;;;;2.40;1.47;;;6.40;94.60;;;;;;5072547;28;20746;-52
2020/12/29 07:37:16;;;;;;;1.47;1.33;;;6.40;94.60;;;;;;5073429;28;20672;-52
2020/12/29 07:39:44;;;;;;;1.30;1.20;;;6.50;94.60;;;;;;5073625;28;20979;-52
2020/12/29 07:42:12;;;;;;;1.43;1.33;;;6.50;94.60;;;;;;5073178;28;20709;-51
2020/12/29 07:44:40;;;;;;;1.20;1.10;;;6.50;95.10;;;;;;5073146;28;20670;-51
2020/12/29 07:47:07;;;;;;;1.20;0.93;;;6.50;94.50;;;;;;5072971;28;20643;-52
2020/12/29 07:49:33;;;;;;;1.50;1.20;;;6.50;94.50;;;;;;5072716;28;20664;-52
2020/12/29 07:52:00;;;;;;;1.53;1.43;;;6.50;94.60;;;;;;5072983;28;20764;-52
2020/12/29 07:54:27;;;;;;;1.90;1.40;;;6.50;94.40;;;;;;5072320;28;20654;-52
2020/12/29 07:56:54;;;;;;;1.30;1.20;;;6.60;94.30;;;;;;5073458;28;20656;-52
2020/12/29 07:59:22;;;;;;;2.30;1.97;;;6.60;94.40;;;;;;5073151;28;20665;-52
2020/12/29 08:01:54;;;;;;;2.23;1.80;;;6.50;94.50;;;;;;5072352;28;20756;-52
2020/12/29 08:04:28;;;;;;;2.10;1.90;;;6.60;94.50;;;;;;5072747;28;20641;-52
2020/12/29 08:06:55;;;;;;;1.53;1.43;;;6.50;94.50;;;;;;5072496;28;20653;-52
2020/12/29 08:09:22;;;;;;;1.67;1.30;;;6.50;94.60;;;;;;5072746;28;20669;-51
2020/12/29 08:11:48;;;;;;;1.60;1.50;;;6.60;94.50;;;;;;5072801;28;20715;-52
2020/12/29 08:14:15;;;;;;;2.13;2.00;;;6.70;94.60;;;;;;5072961;28;20629;-52
2020/12/29 08:16:42;;;;;;;1.53;1.43;;;6.70;94.50;;;;;;5072309;28;20658;-51
2020/12/29 08:19:09;;;;;;;1.50;1.40;;;6.70;94.60;;;;;;5072509;28;20645;-52
2020/12/29 08:21:37;;;;;;;2.00;1.80;;;6.70;94.30;;;;;;5072261;28;20762;-52
2020/12/29 08:24:04;;;;;;;1.73;1.50;;;6.80;94.30;;;;;;5071877;28;20706;-51
2020/12/29 08:26:31;;;;;;;1.80;1.50;;;6.80;94.00;;;;;;5072738;28;21133;-51
2020/12/29 08:28:57;;;;;;;1.43;1.33;;;6.70;93.90;;;;;;5071990;28;21026;-52
2020/12/29 08:31:24;;;;;;;3.23;1.43;;;6.80;94.20;;;;;;5072672;28;20682;-51
2020/12/29 08:33:52;;;;;;;1.50;1.40;;;6.70;94.20;;;;;;5072067;28;20653;-52
2020/12/29 08:36:24;;;;;;;1.70;1.60;;;6.70;94.00;;;;;;5071836;28;20965;-52
2020/12/29 08:39:05;;;;;;;2.00;1.77;;;6.70;94.10;;;;;;5071600;28;20653;-52
2020/12/29 08:41:37;;;;;;;1.33;1.23;;;6.70;94.10;;;;;;5056071;28;20708;-52
2020/12/29 08:44:04;;;;;;;1.70;1.60;;;6.70;93.90;;;;;;5051435;28;20663;-52
2020/12/29 08:46:33;;;;;;;1.20;1.10;;;6.70;94.00;;;;;;5051987;28;20659;-52
2020/12/29 08:49:01;;;;;;;1.60;1.50;;;6.70;94.00;;;;;;5051616;28;20656;-52
2020/12/29 08:51:29;;;;;;;1.80;1.70;;;6.80;94.20;;;;;;5069825;28;20902;-52
2020/12/29 08:54:06;;;;;;;1.70;1.60;;;6.70;94.00;;;;;;5071023;28;20658;-52
2020/12/29 08:56:33;;;;;;;2.10;2.00;;;6.70;94.20;;;;;;5072381;28;20630;-51
2020/12/29 08:59:10;;;;;;;2.00;1.90;;;6.80;94.20;;;;;;5071581;28;20630;-52
2020/12/29 09:01:37;;;;;;;0.90;0.90;;;6.80;94.00;;;;;;5071401;28;20701;-52
2020/12/29 09:04:24;;;;;;;2.10;2.00;;;6.80;94.00;;;;;;5071548;28;20690;-52
2020/12/29 09:07:02;;;;;;;1.70;1.60;;;6.80;94.30;;;;;;5071891;28;20660;-51
2020/12/29 09:09:34;;;;;;;1.60;1.50;;;6.70;94.30;;;;;;5071719;28;20620;-52
2020/12/29 09:12:11;;;;;;;2.53;2.20;;;6.70;94.40;;;;;;5071871;28;20642;-50
2020/12/29 09:14:38;;;;;;;2.27;1.60;;;6.70;94.40;;;;;;5071563;28;20644;-50
2020/12/29 09:17:06;;;;;;;1.53;1.43;;;6.70;94.40;;;;;;5071772;28;20662;-50
2020/12/29 09:19:33;;;;;;;1.67;1.20;;;6.70;94.70;;;;;;5071547;28;20991;-50
2020/12/29 09:22:10;;;;;;;1.53;1.27;;;6.70;94.30;;;;;;5053352;28;20673;-51
2020/12/29 09:24:38;;;;;;;1.80;1.70;;;6.70;94.20;;;;;;5071999;28;20810;-52
2020/12/29 09:27:05;;;;;;;1.70;1.60;;;6.80;94.40;;;;;;5072160;28;20673;-51
2020/12/29 09:29:34;;;;;;;3.30;3.00;;;6.80;94.20;;;;;;5071845;28;20616;-51
2020/12/29 09:32:01;;;;;;;2.33;2.13;;;6.90;94.20;;;;;;5072157;28;20682;-52
2020/12/29 09:34:28;;;;;;;2.20;1.87;;;6.90;94.20;;;;;;5071156;28;20661;-51
2020/12/29 09:36:55;;;;;;;2.17;1.97;;;6.90;94.10;;;;;;5071360;28;20651;-51
2020/12/29 09:39:22;;;;;;;1.93;1.83;;;6.90;94.00;;;;;;5071125;28;20658;-51
2020/12/29 09:41:56;;;;;;;3.10;2.80;;;7.00;94.20;;;;;;5070931;28;20703;-51
2020/12/29 09:44:22;;;;;;;1.93;1.83;;;7.00;94.30;;;;;;5071045;28;20653;-51
2020/12/29 09:46:49;;;;;;;1.80;1.70;;;7.10;94.40;;;;;;5070584;28;20661;-52
2020/12/29 09:49:16;;;;;;;2.23;1.83;;;7.00;94.30;;;;;;5070222;28;21279;-51
2020/12/29 09:51:42;;;;;;;2.83;2.63;;;7.00;94.40;;;;;;5070928;28;20682;-51
2020/12/29 09:54:09;;;;;;;3.00;2.67;;;7.00;94.60;;;;;;5070780;28;20657;-51
2020/12/29 09:56:38;;;;;;;2.20;2.00;;;7.00;94.60;;;;;;5070326;28;20661;-51
2020/12/29 09:59:04;;;;;;;2.13;1.97;;;6.80;94.60;;;;;;5070685;28;20648;-50
2020/12/29 10:01:31;;;;;;;3.83;3.50;;;6.70;94.90;;;;;;5070590;28;20682;-51
2020/12/29 10:03:58;;;;;;;2.13;1.93;;;6.70;95.10;;;;;;5070519;28;20689;-50
2020/12/29 10:06:24;;;;;;;2.40;2.20;;;6.80;95.20;;;;;;5070707;28;21149;-50
2020/12/29 10:08:51;;;;;;;2.40;2.20;;;6.90;94.90;;;;;;5069887;28;20683;-50
2020/12/29 10:11:18;;;;;;;1.90;1.80;;;7.00;95.00;;;;;;5070348;28;20660;-50
2020/12/29 10:13:48;;;;;;;2.80;2.60;;;7.00;94.50;;;;;;5069677;28;20665;-50
2020/12/29 10:16:15;;;;;;;1.90;1.80;;;7.10;94.70;;;;;;5070673;28;21049;-50
2020/12/29 10:18:42;;;;;;;2.40;2.13;;;7.00;94.50;;;;;;5070509;28;20638;-50
2020/12/29 10:21:10;;;;;;;2.63;2.43;;;7.10;94.50;;;;;;5070140;28;20720;-50
2020/12/29 10:23:37;;;;;;;2.33;2.13;;;7.20;94.40;;;;;;5069569;28;21028;-50
2020/12/29 10:26:03;;;;;;;2.00;1.90;;;7.20;94.20;;;;;;5070324;28;20626;-50
2020/12/29 10:28:31;;;;;;;2.53;2.23;;;7.20;94.30;;;;;;5070467;28;20660;-51
2020/12/29 10:30:58;;;;;;;2.27;2.07;;;7.20;94.00;;;;;;5070431;28;21287;-50
2020/12/29 10:33:25;;;;;;;2.23;2.07;;;7.20;94.20;;;;;;5069629;28;20659;-50
2020/12/29 10:35:55;;;;;;;2.67;2.30;;;7.30;94.20;;;;;;5070609;28;20630;-51
2020/12/29 10:38:22;;;;;;;2.73;2.53;;;7.40;94.10;;;;;;5069978;28;20928;-52
2020/12/29 10:40:48;;;;;;;2.70;2.50;;;7.40;94.00;;;;;;5062221;28;20878;-52
2020/12/29 10:43:15;;;;;;;2.70;2.10;;;7.50;94.00;;;;;;5055970;28;20695;-52
2020/12/29 10:45:42;;;;;;;2.20;2.03;;;7.50;93.80;;;;;;5070569;28;20626;-51
2020/12/29 10:48:10;;;;;;;3.23;2.93;;;7.50;93.70;;;;;;5069868;28;20631;-52
2020/12/29 10:50:37;;;;;;;2.83;2.60;;;7.50;93.90;;;;;;5069888;28;20689;-52
2020/12/29 10:53:03;;;;;;;2.03;1.90;;;7.60;93.60;;;;;;5070315;28;20619;-52
2020/12/29 10:55:30;;;;;;;2.27;2.10;;;7.60;93.30;;;;;;5070659;28;20677;-52
2020/12/29 10:57:57;;;;;;;2.40;2.30;;;7.70;93.30;;;;;;5070573;28;20619;-52
2020/12/29 11:00:24;;;;;;;2.27;1.90;;;7.70;93.20;;;;;;5070367;28;21192;-51
2020/12/29 11:02:50;;;;;;;2.40;2.20;;;7.70;93.30;;;;;;5070453;28;20695;-52
2020/12/29 11:05:18;;;;;;;2.07;1.97;;;7.80;93.20;;;;;;5052464;28;20623;-51
2020/12/29 11:07:45;;;;;;;2.07;1.97;;;7.80;92.90;;;;;;5070499;28;20623;-52
2020/12/29 11:10:11;;;;;;;18.47;7.30;;;7.80;93.10;;;;;;5069923;28;20664;-51
2020/12/29 11:12:38;;;;;;;3.17;2.87;;;7.90;93.70;;;;;;5070326;28;20629;-52
2020/12/29 11:15:05;;;;;;;3.73;3.43;;;7.80;92.60;;;;;;5070583;28;20626;-52
2020/12/29 11:17:32;;;;;;;1.73;1.63;;;7.80;92.70;;;;;;5070618;28;20622;-52
2020/12/29 11:20:01;;;;;;;3.00;2.70;;;7.70;92.60;;;;;;5069662;28;20712;-52
2020/12/29 11:22:28;;;;;;;2.33;2.13;;;7.70;92.70;;;;;;5069913;28;21071;-51
2020/12/29 11:24:55;;;;;;;1.93;1.80;;;7.80;92.90;;;;;;5068617;28;20678;-52
2020/12/29 11:27:22;;;;;;;2.33;2.13;;;7.90;92.80;;;;;;5069673;28;20627;-52
2020/12/29 11:29:49;;;;;;;2.40;2.20;;;7.90;92.40;;;;;;5070169;28;20660;-52
2020/12/29 11:32:16;;;;;;;2.53;2.00;;;8.00;92.10;;;;;;5070270;28;20653;-52
2020/12/29 11:34:42;;;;;;;2.10;2.00;;;8.10;92.10;;;;;;5071001;28;21199;-52
2020/12/29 11:37:09;;;;;;;2.20;1.53;;;8.30;91.80;;;;;;5070073;28;20660;-52
2020/12/29 11:39:37;;;;;;;2.00;1.80;;;8.60;90.60;;;;;;5069580;28;20623;-52
2020/12/29 11:42:03;;;;;;;3.53;2.43;;;8.60;90.20;;;;;;5069322;28;20659;-52
2020/12/29 11:44:30;;;;;;;2.10;2.00;;;8.50;90.60;;;;;;5069036;28;21160;-52
2020/12/29 11:46:57;;;;;;;2.90;2.00;;;8.50;90.90;;;;;;5069205;28;20938;-51
2020/12/29 11:49:24;;;;;;;2.80;2.60;;;8.50;90.70;;;;;;5069129;28;20714;-50
2020/12/29 11:51:50;;;;;;;3.10;2.30;;;8.50;90.60;;;;;;5069350;28;21111;-50
2020/12/29 11:54:17;;;;;;;4.63;2.40;;;8.50;90.80;;;;;;5069576;28;20652;-50
2020/12/29 11:56:48;;;;;;;7.47;2.10;;;8.50;90.50;;;;;;5068692;28;20629;-49
2020/12/29 11:59:15;;;;;;;3.57;1.87;;;8.50;90.40;;;;;;5069395;28;21189;-50
2020/12/29 12:01:41;;;;;;;2.80;2.50;;;8.60;90.70;;;;;;5050659;28;20661;-50
2020/12/29 12:04:08;;;;;;;3.13;2.20;;;8.60;91.30;;;;;;5069675;28;20708;-49
2020/12/29 12:06:35;;;;;;;1.87;1.77;;;8.50;91.10;;;;;;5068957;28;20657;-50
2020/12/29 12:09:02;;;;;;;3.40;2.60;;;8.40;91.10;;;;;;5069420;28;20659;-50
2020/12/29 12:11:29;;;;;;;2.50;2.30;;;8.40;92.00;;;;;;5068771;28;20728;-50
2020/12/29 12:13:57;;;;;;;3.07;2.77;;;8.40;91.70;;;;;;5068623;28;20668;-49
2020/12/29 12:16:24;;;;;;;3.10;2.80;;;8.30;91.60;;;;;;5068991;28;20659;-51
2020/12/29 12:18:51;;;;;;;2.60;2.27;;;8.30;91.70;;;;;;5069225;28;20671;-54
2020/12/29 12:21:17;;;;;;;2.83;2.53;;;8.30;91.30;;;;;;5072579;28;20700;-51
2020/12/29 12:23:44;;;;;;;2.23;2.13;;;8.20;91.80;;;;;;5073485;28;20692;-53
2020/12/29 12:26:16;;;;;;;2.57;2.37;;;8.20;91.90;;;;;;5072470;28;20646;-52
2020/12/29 12:28:43;;;;;;;4.13;3.40;;;8.30;91.90;;;;;;5072579;28;20705;-52
2020/12/29 12:31:14;;;;;;;3.43;2.27;;;8.20;91.90;;;;;;5072607;28;20721;-52
2020/12/29 12:33:40;;;;;;;2.83;2.40;;;8.20;91.80;;;;;;5072202;28;20659;-52
2020/12/29 12:36:07;;;;;;;2.57;2.37;;;8.10;91.80;;;;;;5073034;28;20662;-52
2020/12/29 12:38:34;;;;;;;2.63;2.40;;;8.20;92.00;;;;;;5072427;28;20720;-50
2020/12/29 12:41:01;;;;;;;2.97;2.47;;;8.10;92.00;;;;;;5071986;28;20660;-51
2020/12/29 12:43:28;;;;;;;3.77;2.50;;;8.10;92.40;;;;;;5071533;28;20757;-51
2020/12/29 12:45:55;;;;;;;5.10;4.17;;;8.10;92.00;;;;;;5072369;28;20651;-52
2020/12/29 12:48:23;;;;;;;3.70;2.20;;;8.20;91.60;;;;;;5071627;28;21183;-52
2020/12/29 12:50:50;;;;;;;2.77;2.57;;;8.20;91.50;;;;;;5072520;28;20684;-52
2020/12/29 12:53:16;;;;;;;3.77;2.60;;;8.10;91.70;;;;;;5071874;28;21153;-52
2020/12/29 12:55:43;;;;;;;2.73;2.27;;;8.10;92.40;;;;;;5053696;28;20627;-52
2020/12/29 12:58:10;;;;;;;3.40;2.63;;;8.10;91.80;;;;;;5053854;28;20657;-52
2020/12/29 13:00:37;;;;;;;4.70;2.20;;;8.20;91.70;;;;;;5072319;28;21048;-52